createdAt,value
2022-09-07T00:01:10.641Z,2.58
2022-09-07T00:03:37.276Z,1.73
2022-09-07T00:06:12.317Z,1.58
2022-09-07T00:08:40.416Z,2.45
2022-09-07T00:11:11.419Z,3.42
2022-09-07T00:13:39.886Z,1.73
2022-09-07T00:16:18.685Z,2.60
2022-09-07T00:18:46.427Z,2.03
2022-09-07T00:21:15.528Z,2.55
2022-09-07T00:23:42.478Z,2.17
2022-09-07T00:26:11.847Z,1.48
2022-09-07T00:28:39.480Z,4.65
2022-09-07T00:31:11.341Z,3.05
2022-09-07T00:33:38.206Z,5.60
2022-09-07T00:36:05.029Z,2.40
2022-09-07T00:38:31.825Z,1.60
2022-09-07T00:40:58.715Z,2.33
2022-09-07T00:43:46.976Z,1.83
2022-09-07T00:46:17.700Z,2.45
2022-09-07T00:49:02.267Z,3.75
2022-09-07T00:51:44.777Z,1.48
2022-09-07T00:54:19.162Z,1.77
2022-09-07T00:56:47.372Z,2.00
2022-09-07T00:59:17.596Z,2.03
2022-09-07T01:01:45.321Z,1.98
2022-09-07T01:04:12.702Z,2.53
2022-09-07T01:06:39.964Z,1.60
2022-09-07T01:09:12.658Z,3.88
2022-09-07T01:11:40.012Z,1.88
2022-09-07T01:14:09.843Z,2.13
2022-09-07T01:16:51.846Z,1.77
2022-09-07T01:19:21.548Z,2.70
2022-09-07T01:22:06.149Z,3.13
2022-09-07T01:25:12.097Z,1.90
2022-09-07T01:27:56.685Z,1.10
2022-09-07T01:30:24.796Z,0.80
2022-09-07T01:33:16.887Z,2.33
2022-09-07T01:36:08.702Z,1.60
2022-09-07T01:38:41.473Z,4.32
2022-09-07T01:41:22.895Z,4.07
2022-09-07T01:44:04.235Z,2.45
2022-09-07T01:46:42.931Z,1.27
2022-09-07T01:49:35.995Z,1.60
2022-09-07T01:52:10.213Z,2.55
2022-09-07T01:54:46.412Z,2.22
2022-09-07T01:57:26.520Z,1.65
2022-09-07T01:59:57.320Z,1.33
2022-09-07T02:02:30.737Z,2.85
2022-09-07T02:05:18.641Z,4.47
2022-09-07T02:08:06.927Z,2.38
2022-09-07T02:10:54.752Z,1.27
2022-09-07T02:13:29.458Z,2.08
2022-09-07T02:16:06.869Z,2.88
2022-09-07T02:18:38.820Z,1.92
2022-09-07T02:21:08.720Z,1.52
2022-09-07T02:23:40.794Z,1.35
2022-09-07T02:26:15.170Z,1.95
2022-09-07T02:28:42.154Z,2.10
2022-09-07T02:31:08.932Z,10.82
2022-09-07T02:33:35.857Z,2.08
2022-09-07T02:36:04.464Z,2.10
2022-09-07T02:38:32.752Z,2.58
2022-09-07T02:41:01.029Z,2.80
2022-09-07T02:43:28.702Z,4.05
2022-09-07T02:46:28.195Z,2.03
2022-09-07T02:49:09.016Z,2.72
2022-09-07T02:52:10.189Z,2.33
2022-09-07T02:54:45.796Z,1.70
2022-09-07T02:57:43.135Z,2.28
2022-09-07T03:00:12.988Z,2.53
2022-09-07T03:03:20.940Z,2.13
2022-09-07T03:05:50.111Z,2.97
2022-09-07T03:08:31.425Z,4.85
2022-09-07T03:10:59.189Z,1.52
2022-09-07T03:13:28.126Z,3.15
2022-09-07T03:15:56.501Z,2.53
2022-09-07T03:18:24.494Z,2.00
2022-09-07T03:20:51.524Z,3.80
2022-09-07T03:23:18.387Z,2.40
2022-09-07T03:25:45.332Z,1.80
2022-09-07T03:28:12.027Z,3.38
2022-09-07T03:30:43.936Z,3.20
2022-09-07T03:33:11.260Z,3.35
2022-09-07T03:35:37.866Z,3.72
2022-09-07T03:38:04.478Z,3.28
2022-09-07T03:40:32.192Z,4.75
2022-09-07T03:42:58.849Z,3.58
2022-09-07T03:45:29.748Z,5.68
2022-09-07T03:47:56.645Z,5.55
2022-09-07T03:50:23.235Z,3.88
2022-09-07T03:52:49.831Z,3.88
2022-09-07T03:55:16.496Z,2.75
2022-09-07T03:57:43.499Z,2.88
2022-09-07T04:00:10.860Z,4.40
2022-09-07T04:02:37.550Z,4.47
2022-09-07T04:05:04.459Z,3.78
2022-09-07T04:07:31.070Z,4.32
2022-09-07T04:09:57.659Z,4.00
2022-09-07T04:12:25.973Z,3.25
2022-09-07T04:14:52.590Z,3.95
2022-09-07T04:17:19.199Z,3.25
2022-09-07T04:19:45.831Z,4.05
2022-09-07T04:22:12.431Z,7.40
2022-09-07T04:24:39.050Z,5.40
2022-09-07T04:27:05.691Z,5.15
2022-09-07T04:29:32.294Z,5.90
2022-09-07T04:31:58.924Z,5.93
2022-09-07T04:34:25.587Z,4.53
2022-09-07T04:36:52.276Z,6.03
2022-09-07T04:39:18.891Z,10.57
2022-09-07T04:41:45.550Z,5.13
2022-09-07T04:44:16.625Z,9.77
2022-09-07T04:46:43.503Z,5.13
2022-09-07T04:49:11.891Z,4.97
2022-09-07T04:51:39.996Z,3.67
2022-09-07T04:54:07.249Z,5.20
2022-09-07T04:56:34.215Z,6.38
2022-09-07T04:59:01.939Z,5.60
2022-09-07T05:01:28.999Z,6.18
2022-09-07T05:03:55.932Z,6.90
2022-09-07T05:06:23.415Z,4.55
2022-09-07T05:08:52.382Z,6.82
2022-09-07T05:11:21.201Z,3.92
2022-09-07T05:13:49.741Z,6.18
2022-09-07T05:16:18.765Z,4.20
2022-09-07T05:18:49.510Z,6.93
2022-09-07T05:21:18.823Z,5.50
2022-09-07T05:23:49.175Z,4.20
2022-09-07T05:26:15.878Z,5.88
2022-09-07T05:28:43.210Z,5.72
2022-09-07T05:31:19.071Z,6.35
2022-09-07T05:36:35.472Z,3.92
2022-09-07T05:39:02.116Z,3.22
2022-09-07T05:41:28.921Z,7.10
2022-09-07T05:46:42.646Z,4.93
2022-09-07T05:49:09.894Z,4.20
2022-09-07T05:51:37.188Z,4.10
2022-09-07T05:54:04.128Z,6.25
2022-09-07T05:56:33.247Z,10.50
2022-09-07T05:58:59.840Z,6.03
2022-09-07T06:01:26.528Z,4.43
2022-09-07T06:03:53.143Z,5.43
2022-09-07T06:06:19.791Z,7.88
2022-09-07T06:08:51.496Z,5.90
2022-09-07T06:11:22.293Z,8.48
2022-09-07T06:13:49.235Z,4.40
2022-09-07T06:16:17.073Z,5.72
2022-09-07T06:18:45.883Z,11.30
2022-09-07T06:21:14.468Z,8.13
2022-09-07T06:23:42.687Z,6.43
2022-09-07T06:26:10.300Z,4.65
2022-09-07T06:28:39.303Z,6.85
2022-09-07T06:31:12.829Z,5.30
2022-09-07T06:33:40.451Z,12.60
2022-09-07T06:36:14.291Z,4.47
2022-09-07T06:38:41.229Z,5.38
2022-09-07T06:43:58.292Z,5.85
2022-09-07T06:49:12.636Z,3.15
2022-09-07T06:51:39.232Z,8.80
2022-09-07T06:56:52.715Z,4.18
2022-09-07T06:59:19.442Z,5.60
2022-09-07T07:01:46.083Z,6.18
2022-09-07T07:04:13.225Z,6.20
2022-09-07T07:06:39.961Z,6.55
2022-09-07T07:09:08.586Z,5.00
2022-09-07T07:11:37.112Z,3.90
2022-09-07T07:14:04.109Z,4.15
2022-09-07T07:16:31.034Z,4.72
2022-09-07T07:18:57.915Z,7.18
2022-09-07T07:21:24.633Z,7.00
2022-09-07T07:23:52.749Z,9.43
2022-09-07T07:26:21.631Z,5.50
2022-09-07T07:29:06.069Z,5.47
2022-09-07T07:31:33.612Z,6.63
2022-09-07T07:34:00.342Z,5.95
2022-09-07T07:36:28.056Z,5.70
2022-09-07T07:44:18.400Z,4.18
2022-09-07T07:46:51.284Z,7.70
2022-09-07T07:49:18.322Z,5.00
2022-09-07T07:54:36.000Z,9.30
2022-09-07T07:57:03.896Z,5.20
2022-09-07T07:59:30.771Z,5.63
2022-09-07T08:01:57.474Z,7.53
2022-09-07T08:04:24.134Z,7.00
2022-09-07T08:06:50.716Z,6.53
2022-09-07T08:09:17.427Z,4.57
2022-09-07T08:11:43.988Z,7.28
2022-09-07T08:14:10.556Z,6.13
2022-09-07T08:16:37.564Z,4.88
2022-09-07T08:19:05.548Z,7.93
2022-09-07T08:21:32.083Z,5.60
2022-09-07T08:23:59.811Z,5.82
2022-09-07T08:26:27.155Z,6.38
2022-09-07T08:28:53.837Z,9.15
2022-09-07T08:31:20.462Z,6.72
2022-09-07T08:33:47.113Z,5.82
2022-09-07T08:36:21.227Z,7.78
2022-09-07T08:38:48.125Z,5.05
2022-09-07T08:41:52.528Z,5.60
2022-09-07T08:44:24.641Z,4.60
2022-09-07T08:46:58.975Z,6.20
2022-09-07T08:49:31.387Z,6.00
2022-09-07T08:52:26.004Z,6.07
2022-09-07T08:55:09.452Z,5.85
2022-09-07T08:57:41.441Z,5.68
2022-09-07T09:00:14.049Z,7.50
2022-09-07T09:05:31.858Z,5.25
2022-09-07T09:06:11.612Z,4.75
2022-09-07T09:08:18.090Z,6.32
2022-09-07T09:10:53.372Z,5.22
2022-09-07T09:13:43.567Z,4.18
2022-09-07T09:16:29.364Z,6.35
2022-09-07T09:19:27.677Z,6.20
2022-09-07T09:22:09.520Z,6.05
2022-09-07T09:24:41.020Z,6.65
2022-09-07T09:27:09.696Z,6.63
2022-09-07T09:29:36.236Z,5.18
2022-09-07T09:32:33.288Z,10.50
2022-09-07T09:35:10.180Z,6.25
2022-09-07T09:37:38.244Z,5.80
2022-09-07T09:40:09.260Z,5.20
2022-09-07T09:42:38.701Z,7.10
2022-09-07T09:45:16.316Z,5.60
2022-09-07T09:47:50.157Z,4.72
2022-09-07T09:53:57.642Z,8.40
2022-09-07T09:56:40.111Z,5.18
2022-09-07T10:05:26.356Z,5.40
2022-09-07T10:07:53.744Z,4.32
2022-09-07T10:10:20.784Z,6.78
2022-09-07T10:12:47.423Z,5.15
2022-09-07T10:15:39.708Z,4.90
2022-09-07T10:18:16.163Z,6.10
2022-09-07T10:20:42.687Z,5.82
2022-09-07T10:23:23.133Z,7.72
2022-09-07T10:25:49.675Z,5.82
2022-09-07T10:28:21.794Z,4.82
2022-09-07T10:31:15.846Z,5.30
2022-09-07T10:36:59.204Z,6.15
2022-09-07T10:39:31.039Z,8.48
2022-09-07T10:42:09.530Z,5.47
2022-09-07T10:44:57.947Z,7.55
2022-09-07T10:47:34.627Z,6.25
2022-09-07T10:53:43.415Z,6.88
2022-09-07T10:56:30.107Z,5.28
2022-09-07T10:59:20.184Z,10.75
2022-09-07T11:02:16.328Z,5.43
2022-09-07T11:04:58.972Z,5.07
2022-09-07T11:07:43.952Z,7.97
2022-09-07T11:10:16.442Z,6.20
2022-09-07T11:12:45.116Z,5.68
2022-09-07T11:15:17.933Z,5.85
2022-09-07T11:17:52.776Z,8.25
2022-09-07T11:20:33.299Z,6.05
2022-09-07T11:23:25.976Z,5.88
2022-09-07T11:25:52.448Z,5.28
2022-09-07T11:28:27.088Z,6.50
2022-09-07T11:31:00.594Z,6.97
2022-09-07T11:33:27.225Z,7.28
2022-09-07T11:36:02.175Z,8.45
2022-09-07T11:38:39.368Z,9.57
2022-09-07T11:41:34.233Z,8.20
2022-09-07T11:44:04.344Z,7.20
2022-09-07T11:46:41.320Z,5.95
2022-09-07T11:49:16.292Z,7.13
2022-09-07T11:51:53.690Z,8.90
2022-09-07T11:54:26.242Z,9.07
2022-09-07T11:57:36.676Z,8.48
2022-09-07T12:00:08.302Z,5.72
2022-09-07T12:03:01.063Z,6.82
2022-09-07T12:06:01.957Z,8.05
2022-09-07T12:08:43.477Z,5.95
2022-09-07T12:11:33.533Z,7.03
2022-09-07T12:14:15.192Z,7.30
2022-09-07T12:17:15.579Z,6.15
2022-09-07T12:19:42.617Z,6.00
2022-09-07T12:22:22.420Z,7.03
2022-09-07T12:24:53.736Z,5.72
2022-09-07T12:27:20.239Z,6.30
2022-09-07T12:29:47.987Z,7.43
2022-09-07T12:32:54.823Z,7.57
2022-09-07T12:35:28.286Z,6.32
2022-09-07T12:37:56.603Z,9.35
2022-09-07T12:40:29.501Z,6.50
2022-09-07T12:43:14.594Z,6.20
2022-09-07T12:45:41.857Z,6.15
2022-09-07T12:48:33.196Z,6.18
2022-09-07T12:51:12.303Z,6.72
2022-09-07T12:53:42.019Z,5.10
2022-09-07T12:56:43.886Z,6.30
2022-09-07T12:59:38.252Z,6.13
2022-09-07T13:02:32.012Z,7.35
2022-09-07T13:05:24.988Z,7.75
2022-09-07T13:08:29.134Z,6.10
2022-09-07T13:10:55.748Z,4.82
2022-09-07T13:16:27.876Z,6.25
2022-09-07T13:18:54.500Z,5.20
2022-09-07T13:21:37.009Z,5.00
2022-09-07T13:27:26.507Z,5.72
2022-09-07T13:30:24.746Z,6.95
2022-09-07T13:35:39.015Z,4.63
2022-09-07T13:38:05.632Z,5.07
2022-09-07T13:40:37.616Z,5.88
2022-09-07T13:43:05.400Z,6.40
2022-09-07T13:45:45.371Z,4.95
2022-09-07T13:48:37.593Z,6.80
2022-09-07T13:51:10.381Z,7.18
2022-09-07T13:54:28.998Z,5.28
2022-09-07T13:57:16.444Z,6.20
2022-09-07T13:59:43.270Z,4.30
2022-09-07T14:02:27.003Z,6.35
2022-09-07T14:04:55.560Z,4.90
2022-09-07T14:07:28.847Z,4.38
2022-09-07T14:10:26.024Z,6.82
2022-09-07T14:13:08.168Z,5.40
2022-09-07T14:15:42.247Z,5.97
2022-09-07T14:18:22.616Z,6.63
2022-09-07T14:20:51.319Z,4.93
2022-09-07T14:23:29.742Z,5.18
2022-09-07T14:26:18.946Z,4.25
2022-09-07T14:28:51.823Z,4.75
2022-09-07T14:31:25.727Z,6.30
2022-09-07T14:33:57.932Z,4.97
2022-09-07T14:36:47.701Z,8.10
2022-09-07T14:39:17.023Z,7.68
2022-09-07T14:41:44.498Z,5.78
2022-09-07T14:44:32.381Z,5.93
2022-09-07T14:47:02.735Z,5.43
2022-09-07T14:49:29.628Z,5.97
2022-09-07T14:51:56.876Z,5.68
2022-09-07T14:54:31.612Z,5.88
2022-09-07T14:57:02.632Z,8.60
2022-09-07T14:59:47.041Z,7.93
2022-09-07T15:02:21.726Z,5.43
2022-09-07T15:05:17.972Z,5.18
2022-09-07T15:07:54.287Z,10.30
2022-09-07T15:10:20.840Z,6.53
2022-09-07T15:12:49.318Z,5.90
2022-09-07T15:15:31.149Z,6.75
2022-09-07T15:18:05.852Z,8.63
2022-09-07T15:20:36.388Z,6.50
2022-09-07T15:23:14.353Z,6.20
2022-09-07T15:25:45.435Z,4.70
2022-09-07T15:34:02.184Z,6.43
2022-09-07T15:36:32.046Z,6.00
2022-09-07T15:39:00.857Z,7.90
2022-09-07T15:41:29.192Z,5.85
2022-09-07T15:43:56.807Z,6.30
2022-09-07T15:46:25.085Z,7.18
2022-09-07T15:48:54.649Z,6.40
2022-09-07T15:54:14.067Z,6.75
2022-09-07T15:56:42.713Z,7.35
2022-09-07T15:59:10.552Z,7.18
2022-09-07T16:01:54.646Z,7.22
2022-09-07T16:04:24.123Z,7.35
2022-09-07T16:06:50.940Z,5.95
2022-09-07T16:09:17.837Z,6.18
2022-09-07T16:11:50.178Z,5.88
2022-09-07T16:14:17.476Z,6.15
2022-09-07T16:19:34.625Z,7.63
2022-09-07T16:22:01.952Z,6.13
2022-09-07T16:24:28.644Z,5.45
2022-09-07T16:26:55.467Z,8.02
2022-09-07T16:29:22.047Z,6.10
2022-09-07T16:34:35.520Z,7.60
2022-09-07T16:37:02.686Z,5.93
2022-09-07T16:39:29.430Z,7.50
2022-09-07T16:41:56.200Z,5.55
2022-09-07T16:44:23.148Z,7.63
2022-09-07T16:46:50.642Z,4.93
2022-09-07T16:49:17.782Z,5.85
2022-09-07T16:51:45.626Z,6.63
2022-09-07T16:54:13.760Z,4.93
2022-09-07T16:56:40.294Z,7.72
2022-09-07T16:59:09.523Z,7.50
2022-09-07T17:01:40.114Z,5.28
2022-09-07T17:04:10.868Z,5.63
2022-09-07T17:06:38.641Z,5.47
2022-09-07T17:09:05.343Z,6.10
2022-09-07T17:11:36.420Z,6.53
2022-09-07T17:14:05.330Z,7.43
2022-09-07T17:16:39.173Z,5.82
2022-09-07T17:21:55.504Z,6.00
2022-09-07T17:24:24.001Z,6.80
2022-09-07T17:26:50.597Z,7.60
2022-09-07T17:29:17.235Z,19.40
2022-09-07T17:34:30.839Z,5.75
2022-09-07T17:36:57.636Z,7.47
2022-09-07T17:39:24.147Z,6.35
2022-09-07T17:41:54.350Z,8.05
2022-09-07T17:44:21.705Z,4.72
2022-09-07T17:46:48.244Z,5.93
2022-09-07T17:49:16.506Z,5.50
2022-09-07T17:51:44.529Z,8.15
2022-09-07T17:54:14.653Z,9.38
2022-09-07T17:56:43.050Z,6.68
2022-09-07T18:01:57.117Z,5.45
2022-09-07T18:04:24.519Z,6.55
2022-09-07T18:06:51.550Z,5.63
2022-09-07T18:09:19.525Z,9.52
2022-09-07T18:11:47.591Z,7.28
2022-09-07T18:14:15.460Z,7.57
2022-09-07T18:16:43.815Z,8.20
2022-09-07T18:19:11.711Z,7.72
2022-09-07T18:21:41.013Z,7.03
2022-09-07T18:24:16.706Z,7.50
2022-09-07T18:26:44.750Z,6.70
2022-09-07T18:29:28.120Z,7.93
2022-09-07T18:31:56.225Z,7.90
2022-09-07T18:34:23.381Z,10.65
2022-09-07T18:36:50.330Z,7.65
2022-09-07T18:39:16.933Z,7.97
2022-09-07T18:41:43.513Z,5.57
2022-09-07T18:46:56.783Z,7.82
2022-09-07T18:49:24.641Z,6.78
2022-09-07T18:54:38.894Z,7.18
2022-09-07T18:57:06.682Z,9.48
2022-09-07T18:59:34.231Z,10.95
2022-09-07T19:02:04.417Z,7.38
2022-09-07T19:07:24.998Z,8.43
2022-09-07T19:09:55.516Z,6.50
2022-09-07T19:12:22.204Z,10.32
2022-09-07T19:14:48.755Z,8.45
2022-09-07T19:17:15.256Z,9.40
2022-09-07T19:19:41.991Z,9.70
2022-09-07T19:22:08.535Z,7.10
2022-09-07T19:24:35.071Z,8.48
2022-09-07T19:27:01.629Z,6.90
2022-09-07T19:29:29.015Z,9.93
2022-09-07T19:32:05.003Z,8.73
2022-09-07T19:34:32.086Z,7.97
2022-09-07T19:36:59.089Z,8.45
2022-09-07T19:39:25.716Z,9.27
2022-09-07T19:41:52.289Z,8.05
2022-09-07T19:44:18.880Z,9.63
2022-09-07T19:46:45.476Z,9.52
2022-09-07T19:49:12.221Z,12.77
2022-09-07T19:51:40.097Z,8.05
2022-09-07T19:54:07.139Z,7.65
2022-09-07T19:56:36.425Z,8.55
2022-09-07T19:59:03.019Z,8.07
2022-09-07T20:01:29.653Z,13.02
2022-09-07T20:04:05.174Z,8.40
2022-09-07T20:06:33.555Z,8.35
2022-09-07T20:09:01.230Z,8.98
2022-09-07T20:11:28.792Z,9.93
2022-09-07T20:13:57.099Z,8.15
2022-09-07T20:16:25.321Z,9.27
2022-09-07T20:18:52.134Z,8.63
2022-09-07T20:21:23.583Z,8.85
2022-09-07T20:23:51.088Z,7.63
2022-09-07T20:26:19.689Z,9.63
2022-09-07T20:28:46.882Z,9.48
2022-09-07T20:31:15.712Z,8.43
2022-09-07T20:33:44.626Z,10.23
2022-09-07T20:36:13.595Z,7.30
2022-09-07T20:38:41.322Z,9.00
2022-09-07T20:41:12.684Z,7.82
2022-09-07T20:43:39.295Z,10.98
2022-09-07T20:46:06.056Z,7.63
2022-09-07T20:48:33.875Z,8.20
2022-09-07T20:51:03.656Z,9.82
2022-09-07T20:53:30.682Z,9.85
2022-09-07T20:56:03.190Z,8.45
2022-09-07T20:58:30.872Z,7.13
2022-09-07T21:00:57.682Z,6.85
2022-09-07T21:03:24.432Z,10.00
2022-09-07T21:05:51.251Z,7.78
2022-09-07T21:08:18.373Z,10.05
2022-09-07T21:10:46.618Z,8.88
2022-09-07T21:13:14.385Z,11.50
2022-09-07T21:15:42.714Z,9.57
2022-09-07T21:18:15.128Z,9.40
2022-09-07T21:20:52.816Z,9.02
2022-09-07T21:23:31.938Z,8.65
2022-09-07T21:25:58.609Z,10.38
2022-09-07T21:28:26.179Z,7.97
2022-09-07T21:31:01.978Z,9.55
2022-09-07T21:33:29.837Z,9.13
2022-09-07T21:36:02.404Z,8.65
2022-09-07T21:38:29.003Z,10.68
2022-09-07T21:40:55.754Z,9.23
2022-09-07T21:43:22.416Z,9.52
2022-09-07T21:45:49.476Z,10.43
2022-09-07T21:48:15.993Z,22.75
2022-09-07T21:50:42.604Z,14.27
2022-09-07T21:53:09.119Z,11.18
2022-09-07T21:55:35.819Z,12.63
2022-09-07T21:58:02.315Z,11.68
2022-09-07T22:00:29.040Z,9.05
2022-09-07T22:02:55.558Z,10.30
2022-09-07T22:05:22.093Z,13.18
2022-09-07T22:07:48.626Z,10.18
2022-09-07T22:10:15.200Z,12.07
2022-09-07T22:12:41.808Z,12.20
2022-09-07T22:15:08.740Z,10.00
2022-09-07T22:17:35.254Z,10.15
2022-09-07T22:20:02.308Z,9.45
2022-09-07T22:22:28.840Z,10.40
2022-09-07T22:24:55.362Z,8.90
2022-09-07T22:27:21.911Z,9.23
2022-09-07T22:29:48.487Z,10.80
2022-09-07T22:32:15.028Z,10.25
2022-09-07T22:34:41.575Z,8.43
2022-09-07T22:37:08.114Z,11.77
2022-09-07T22:39:34.734Z,8.13
2022-09-07T22:42:01.497Z,9.20
2022-09-07T22:44:28.772Z,11.15
2022-09-07T22:46:55.361Z,8.18
2022-09-07T22:49:22.084Z,11.25
2022-09-07T22:51:48.616Z,9.65
2022-09-07T22:54:15.155Z,9.50
2022-09-07T22:56:42.329Z,8.82
2022-09-07T22:59:09.556Z,9.38
2022-09-07T23:01:37.095Z,14.05
2022-09-07T23:04:04.984Z,12.30
2022-09-07T23:06:37.503Z,9.23
2022-09-07T23:09:07.756Z,9.48
2022-09-07T23:11:34.503Z,9.75
2022-09-07T23:14:04.875Z,9.40
2022-09-07T23:16:31.746Z,10.38
2022-09-07T23:18:59.232Z,9.40
2022-09-07T23:21:27.264Z,7.13
2022-09-07T23:23:56.741Z,12.02
2022-09-07T23:26:24.805Z,11.10
2022-09-07T23:28:52.988Z,9.23
2022-09-07T23:31:20.767Z,9.88
2022-09-07T23:33:47.695Z,10.35
2022-09-07T23:36:14.396Z,8.77
2022-09-07T23:38:40.967Z,10.13
2022-09-07T23:41:07.620Z,16.27
2022-09-07T23:43:34.211Z,12.48
2022-09-07T23:46:00.976Z,12.30
2022-09-07T23:48:28.164Z,10.57
2022-09-07T23:50:54.823Z,10.98
2022-09-07T23:53:22.276Z,8.93
2022-09-07T23:55:52.044Z,10.15
2022-09-07T23:58:20.423Z,11.48
